»·PEaware :: UAL1399 KSNA-KSBA

UAL1399 :: KSNA-KSBA

FLIGHT INFORMATION

Flight Status: Arrived
Operator:
United Airlines
More flights by this operator :: More flights under this callsign
Pilot: David C. (16084)
Aircraft: SAAB 340
(SF34)
More flights by this aircraft type
Origin: KSNA John Wayne-Orange Co
United States
Destination: KSBA Santa Barbara Mun
United States
More flights between these airports :: More routes between these airports
Route: +CHANL3 SXC V208 VTU VTU282 KWANG
File this flight plan on PilotEdge
Remarks: CSTP28
Altitude:
(Current/Filed)
8,000ft
Speed:
(Current/Filed)
273kts
Departed: 29-Aug-18 02:38 PM
Arrived: 29-Aug-18 03:14 PM
Distance/Time
Traveled:
108nm/0:36
Distance/Time
To Go:
Arrived

Flight Plot

Page will automatically refresh every two minutes.

Flight plan parsing failed; only flown route is shown


Map Options




Map Legend


Flown Route
Filed Route
Departure Airport
Arrival Airport
Navaid (VOR, NDB)
Fix

Horizontal Profiles

Position Reports

Time Latitude Longitude Heading Altitude Ground
Speed
29-Aug-18 14:18 33.679377 -117.862472 300 61ft 0kts
29-Aug-18 14:19 33.679377 -117.862472 300 61ft 0kts
29-Aug-18 14:20 33.679377 -117.862472 300 61ft 0kts
29-Aug-18 14:21 33.679377 -117.862472 300 61ft 0kts
29-Aug-18 14:22 33.679377 -117.862472 300 61ft 0kts
29-Aug-18 14:23 33.679377 -117.862472 300 61ft 0kts
29-Aug-18 14:24 33.679377 -117.862472 300 61ft 0kts
29-Aug-18 14:25 33.679377 -117.862472 300 61ft 0kts
29-Aug-18 14:26 33.679377 -117.862472 300 61ft 0kts
29-Aug-18 14:27 33.679377 -117.862472 300 61ft 0kts
29-Aug-18 14:28 33.679377 -117.862472 300 61ft 0kts
29-Aug-18 14:29 33.679377 -117.862472 300 61ft 0kts
29-Aug-18 14:30 33.679377 -117.862472 300 61ft 0kts
29-Aug-18 14:31 33.679377 -117.862472 300 61ft 0kts
29-Aug-18 14:32 33.679377 -117.862472 300 61ft 0kts
29-Aug-18 14:33 33.679377 -117.862472 300 61ft 0kts
29-Aug-18 14:34 33.679377 -117.862472 300 61ft 0kts
29-Aug-18 14:35 33.679537 -117.862744 321 61ft 5kts
29-Aug-18 14:36 33.681105 -117.864175 297 61ft 0kts
29-Aug-18 14:37 33.681111 -117.864188 297 61ft 0kts
29-Aug-18 14:38 33.681218 -117.864444 295 61ft 3kts
29-Aug-18 14:39 33.667115 -117.873860 206 479ft 150kts
29-Aug-18 14:40 33.619863 -117.885636 189 3402ft 182kts
29-Aug-18 14:41 33.580708 -117.900192 214 5523ft 182kts
29-Aug-18 14:42 33.531178 -117.939396 215 7935ft 195kts
29-Aug-18 14:43 33.499748 -117.985951 247 8010ft 241kts
29-Aug-18 14:44 33.474705 -118.061942 247 7996ft 249kts
29-Aug-18 14:45 33.445044 -118.152010 247 7969ft 250kts
29-Aug-18 14:46 33.423822 -118.216471 248 7993ft 250kts
29-Aug-18 14:47 33.398335 -118.293912 248 8016ft 249kts
29-Aug-18 14:48 33.376604 -118.370760 262 8017ft 250kts
29-Aug-18 14:49 33.397020 -118.447144 302 8025ft 256kts
29-Aug-18 14:50 33.441189 -118.514032 306 8024ft 257kts
29-Aug-18 14:51 33.486742 -118.579358 307 8024ft 257kts
29-Aug-18 14:52 33.532529 -118.644779 307 8024ft 257kts
29-Aug-18 14:53 33.577077 -118.708513 306 8027ft 258kts
29-Aug-18 14:54 33.631208 -118.764973 314 8016ft 259kts
29-Aug-18 14:55 33.684051 -118.822897 314 7995ft 258kts
29-Aug-18 14:56 33.735949 -118.880178 314 7976ft 257kts
29-Aug-18 14:57 33.787978 -118.937616 314 7972ft 256kts
29-Aug-18 14:58 33.840657 -118.995509 314 7976ft 256kts
29-Aug-18 14:59 33.893302 -119.053444 313 7981ft 257kts
29-Aug-18 15:00 33.946178 -119.111749 313 7980ft 258kts
29-Aug-18 15:01 33.998876 -119.169937 313 7978ft 258kts
29-Aug-18 15:02 34.051615 -119.228277 313 7975ft 258kts
29-Aug-18 15:03 34.103442 -119.285648 313 7760ft 237kts
29-Aug-18 15:04 34.151895 -119.339465 313 6751ft 237kts
29-Aug-18 15:05 34.200099 -119.392859 314 5739ft 236kts
29-Aug-18 15:06 34.248121 -119.446322 314 4717ft 231kts
29-Aug-18 15:07 34.291056 -119.494180 314 4006ft 215kts
29-Aug-18 15:08 34.322429 -119.548018 295 3941ft 186kts
29-Aug-18 15:09 34.355718 -119.595303 310 3562ft 191kts
29-Aug-18 15:10 34.385447 -119.648649 296 3094ft 190kts
29-Aug-18 15:11 34.406525 -119.699760 292 2930ft 151kts
29-Aug-18 15:12 34.422086 -119.744577 283 1970ft 128kts
29-Aug-18 15:13 34.429078 -119.787512 265 1126ft 135kts
29-Aug-18 15:14 34.427948 -119.831307 265 103ft 122kts
29-Aug-18 15:15 34.428380 -119.845703 70 18ft 2kts
29-Aug-18 15:16 34.428775 -119.845129 342 18ft 5kts

Navigation Log

Ident Type
Flight plan parsing failed, navigation log unavailable